sensor_id;sensor_type;location;lat;lon;timestamp;temperature;humidity
13970;DHT22;7057;49.984;8.404;2023-03-09T00:00:49;9.00;99.90
13970;DHT22;7057;49.984;8.404;2023-03-09T00:03:16;9.00;99.90
13970;DHT22;7057;49.984;8.404;2023-03-09T00:05:44;9.00;99.90
13970;DHT22;7057;49.984;8.404;2023-03-09T00:08:18;9.00;99.90
13970;DHT22;7057;49.984;8.404;2023-03-09T00:10:46;9.00;99.90
13970;DHT22;7057;49.984;8.404;2023-03-09T00:13:16;9.00;99.90
13970;DHT22;7057;49.984;8.404;2023-03-09T00:15:43;9.00;99.90
13970;DHT22;7057;49.984;8.404;2023-03-09T00:18:16;9.00;99.90
13970;DHT22;7057;49.984;8.404;2023-03-09T00:20:43;9.10;99.90
13970;DHT22;7057;49.984;8.404;2023-03-09T00:23:10;9.10;99.90
13970;DHT22;7057;49.984;8.404;2023-03-09T00:25:37;9.10;99.90
13970;DHT22;7057;49.984;8.404;2023-03-09T00:28:06;9.30;99.90
13970;DHT22;7057;49.984;8.404;2023-03-09T00:30:33;9.30;99.90
13970;DHT22;7057;49.984;8.404;2023-03-09T00:33:01;9.30;99.90
13970;DHT22;7057;49.984;8.404;2023-03-09T00:35:29;9.30;99.90
13970;DHT22;7057;49.984;8.404;2023-03-09T00:37:56;9.40;99.90
13970;DHT22;7057;49.984;8.404;2023-03-09T00:40:23;9.40;99.90
13970;DHT22;7057;49.984;8.404;2023-03-09T00:42:50;9.50;99.90
13970;DHT22;7057;49.984;8.404;2023-03-09T00:45:19;9.40;99.90
13970;DHT22;7057;49.984;8.404;2023-03-09T00:47:48;9.40;99.90
13970;DHT22;7057;49.984;8.404;2023-03-09T00:50:16;9.50;99.90
13970;DHT22;7057;49.984;8.404;2023-03-09T00:52:43;9.50;99.90
13970;DHT22;7057;49.984;8.404;2023-03-09T00:55:11;9.50;99.90
13970;DHT22;7057;49.984;8.404;2023-03-09T00:57:38;9.50;99.90
13970;DHT22;7057;49.984;8.404;2023-03-09T01:00:06;9.50;99.90
13970;DHT22;7057;49.984;8.404;2023-03-09T01:02:35;9.40;99.90
13970;DHT22;7057;49.984;8.404;2023-03-09T01:05:02;9.40;99.90
13970;DHT22;7057;49.984;8.404;2023-03-09T01:07:30;9.40;99.90
13970;DHT22;7057;49.984;8.404;2023-03-09T01:10:00;9.40;99.90
13970;DHT22;7057;49.984;8.404;2023-03-09T01:12:27;9.50;99.90
13970;DHT22;7057;49.984;8.404;2023-03-09T01:14:55;9.50;99.90
13970;DHT22;7057;49.984;8.404;2023-03-09T01:17:22;9.60;99.90
13970;DHT22;7057;49.984;8.404;2023-03-09T01:19:50;9.60;99.90
13970;DHT22;7057;49.984;8.404;2023-03-09T01:22:17;9.60;99.90
13970;DHT22;7057;49.984;8.404;2023-03-09T01:24:44;9.60;99.90
13970;DHT22;7057;49.984;8.404;2023-03-09T01:27:12;9.60;99.90
13970;DHT22;7057;49.984;8.404;2023-03-09T01:29:39;9.60;99.90
13970;DHT22;7057;49.984;8.404;2023-03-09T01:32:06;9.70;99.90
13970;DHT22;7057;49.984;8.404;2023-03-09T01:34:34;9.60;99.90
13970;DHT22;7057;49.984;8.404;2023-03-09T01:37:02;9.60;99.90
13970;DHT22;7057;49.984;8.404;2023-03-09T01:39:29;9.60;99.90
13970;DHT22;7057;49.984;8.404;2023-03-09T01:41:56;9.70;99.90
13970;DHT22;7057;49.984;8.404;2023-03-09T01:44:24;9.70;99.90
13970;DHT22;7057;49.984;8.404;2023-03-09T01:46:51;9.70;99.90
13970;DHT22;7057;49.984;8.404;2023-03-09T01:49:29;9.80;99.90
13970;DHT22;7057;49.984;8.404;2023-03-09T01:52:04;9.90;99.90
13970;DHT22;7057;49.984;8.404;2023-03-09T01:54:37;9.90;99.90
13970;DHT22;7057;49.984;8.404;2023-03-09T01:57:10;9.90;99.90
13970;DHT22;7057;49.984;8.404;2023-03-09T01:59:41;9.80;99.90
13970;DHT22;7057;49.984;8.404;2023-03-09T02:02:10;9.80;99.90
13970;DHT22;7057;49.984;8.404;2023-03-09T02:04:43;9.70;99.90
13970;DHT22;7057;49.984;8.404;2023-03-09T02:07:12;9.60;99.90
13970;DHT22;7057;49.984;8.404;2023-03-09T02:09:44;9.60;99.90
13970;DHT22;7057;49.984;8.404;2023-03-09T02:12:17;9.50;99.90
13970;DHT22;7057;49.984;8.404;2023-03-09T02:14:45;9.40;99.90
13970;DHT22;7057;49.984;8.404;2023-03-09T02:17:13;9.30;99.90
13970;DHT22;7057;49.984;8.404;2023-03-09T02:19:53;9.30;99.90
13970;DHT22;7057;49.984;8.404;2023-03-09T02:22:22;9.20;99.90
13970;DHT22;7057;49.984;8.404;2023-03-09T02:24:57;9.20;99.90
13970;DHT22;7057;49.984;8.404;2023-03-09T02:27:28;9.20;99.90
13970;DHT22;7057;49.984;8.404;2023-03-09T02:29:57;9.20;99.90
13970;DHT22;7057;49.984;8.404;2023-03-09T02:32:24;9.20;99.90
13970;DHT22;7057;49.984;8.404;2023-03-09T02:34:51;9.30;99.90
13970;DHT22;7057;49.984;8.404;2023-03-09T02:37:23;9.20;99.90
13970;DHT22;7057;49.984;8.404;2023-03-09T02:39:53;9.20;99.90
13970;DHT22;7057;49.984;8.404;2023-03-09T02:42:22;9.20;99.90
13970;DHT22;7057;49.984;8.404;2023-03-09T02:44:51;9.30;99.90
13970;DHT22;7057;49.984;8.404;2023-03-09T02:47:20;9.20;99.90
13970;DHT22;7057;49.984;8.404;2023-03-09T02:49:48;9.10;99.90
13970;DHT22;7057;49.984;8.404;2023-03-09T02:52:15;9.10;99.90
13970;DHT22;7057;49.984;8.404;2023-03-09T02:54:42;9.00;99.90
13970;DHT22;7057;49.984;8.404;2023-03-09T02:57:10;9.00;99.90
13970;DHT22;7057;49.984;8.404;2023-03-09T02:59:37;9.00;99.90
13970;DHT22;7057;49.984;8.404;2023-03-09T03:02:06;9.10;99.90
13970;DHT22;7057;49.984;8.404;2023-03-09T03:04:33;9.00;99.90
13970;DHT22;7057;49.984;8.404;2023-03-09T03:07:00;9.10;99.90
13970;DHT22;7057;49.984;8.404;2023-03-09T03:09:27;9.10;99.90
13970;DHT22;7057;49.984;8.404;2023-03-09T03:11:55;9.20;99.90
13970;DHT22;7057;49.984;8.404;2023-03-09T03:14:22;9.20;99.90
13970;DHT22;7057;49.984;8.404;2023-03-09T03:16:52;9.10;99.90
13970;DHT22;7057;49.984;8.404;2023-03-09T03:19:20;9.20;99.90
13970;DHT22;7057;49.984;8.404;2023-03-09T03:21:48;9.10;99.90
13970;DHT22;7057;49.984;8.404;2023-03-09T03:24:16;9.20;99.90
13970;DHT22;7057;49.984;8.404;2023-03-09T03:26:43;9.20;99.90
13970;DHT22;7057;49.984;8.404;2023-03-09T03:29:10;9.20;99.90
13970;DHT22;7057;49.984;8.404;2023-03-09T03:31:37;9.20;99.90
13970;DHT22;7057;49.984;8.404;2023-03-09T03:34:05;9.30;99.90
13970;DHT22;7057;49.984;8.404;2023-03-09T03:36:33;9.30;99.90
13970;DHT22;7057;49.984;8.404;2023-03-09T03:39:00;9.40;99.90
13970;DHT22;7057;49.984;8.404;2023-03-09T03:41:29;9.40;99.90
13970;DHT22;7057;49.984;8.404;2023-03-09T03:43:56;9.40;99.90
13970;DHT22;7057;49.984;8.404;2023-03-09T03:46:23;9.50;99.90
13970;DHT22;7057;49.984;8.404;2023-03-09T03:48:50;9.60;99.90
13970;DHT22;7057;49.984;8.404;2023-03-09T03:51:17;9.60;99.90
13970;DHT22;7057;49.984;8.404;2023-03-09T03:53:46;9.70;99.90
13970;DHT22;7057;49.984;8.404;2023-03-09T03:56:13;9.70;99.90
13970;DHT22;7057;49.984;8.404;2023-03-09T03:58:40;9.80;99.90
13970;DHT22;7057;49.984;8.404;2023-03-09T04:01:08;9.80;99.90
13970;DHT22;7057;49.984;8.404;2023-03-09T04:03:35;9.70;99.90
13970;DHT22;7057;49.984;8.404;2023-03-09T04:06:02;9.70;99.90
13970;DHT22;7057;49.984;8.404;2023-03-09T04:08:31;9.70;99.90
13970;DHT22;7057;49.984;8.404;2023-03-09T04:11:04;9.70;99.90
13970;DHT22;7057;49.984;8.404;2023-03-09T04:13:31;9.60;99.90
13970;DHT22;7057;49.984;8.404;2023-03-09T04:15:59;9.60;99.90
13970;DHT22;7057;49.984;8.404;2023-03-09T04:18:26;9.50;99.90
13970;DHT22;7057;49.984;8.404;2023-03-09T04:20:53;9.60;99.90
13970;DHT22;7057;49.984;8.404;2023-03-09T04:23:20;9.50;99.90
13970;DHT22;7057;49.984;8.404;2023-03-09T04:25:53;9.50;99.90
13970;DHT22;7057;49.984;8.404;2023-03-09T04:28:22;9.40;99.90
13970;DHT22;7057;49.984;8.404;2023-03-09T04:30:49;9.40;99.90
13970;DHT22;7057;49.984;8.404;2023-03-09T04:33:17;9.40;99.90
13970;DHT22;7057;49.984;8.404;2023-03-09T04:35:44;9.40;99.90
13970;DHT22;7057;49.984;8.404;2023-03-09T04:38:11;9.20;99.90
13970;DHT22;7057;49.984;8.404;2023-03-09T04:40:39;9.40;99.90
13970;DHT22;7057;49.984;8.404;2023-03-09T04:43:06;9.40;99.90
13970;DHT22;7057;49.984;8.404;2023-03-09T04:45:35;9.40;99.90
13970;DHT22;7057;49.984;8.404;2023-03-09T04:48:02;9.50;99.90
13970;DHT22;7057;49.984;8.404;2023-03-09T04:50:29;9.50;99.90
13970;DHT22;7057;49.984;8.404;2023-03-09T04:52:57;9.60;99.90
13970;DHT22;7057;49.984;8.404;2023-03-09T04:55:24;9.60;99.90
13970;DHT22;7057;49.984;8.404;2023-03-09T04:57:51;9.70;99.90
13970;DHT22;7057;49.984;8.404;2023-03-09T05:00:19;9.70;99.90
13970;DHT22;7057;49.984;8.404;2023-03-09T05:02:48;9.70;99.90
13970;DHT22;7057;49.984;8.404;2023-03-09T05:05:15;9.70;99.90
13970;DHT22;7057;49.984;8.404;2023-03-09T05:07:43;9.70;99.90
13970;DHT22;7057;49.984;8.404;2023-03-09T05:10:11;9.80;99.90
13970;DHT22;7057;49.984;8.404;2023-03-09T05:12:38;9.90;99.90
13970;DHT22;7057;49.984;8.404;2023-03-09T05:15:06;9.90;99.90
13970;DHT22;7057;49.984;8.404;2023-03-09T05:17:35;9.90;99.90
13970;DHT22;7057;49.984;8.404;2023-03-09T05:20:04;9.90;99.90
13970;DHT22;7057;49.984;8.404;2023-03-09T05:22:35;9.80;99.90
13970;DHT22;7057;49.984;8.404;2023-03-09T05:25:03;9.80;99.90
13970;DHT22;7057;49.984;8.404;2023-03-09T05:27:31;9.80;99.90
13970;DHT22;7057;49.984;8.404;2023-03-09T05:29:58;9.80;99.90
13970;DHT22;7057;49.984;8.404;2023-03-09T05:32:25;9.90;99.90
13970;DHT22;7057;49.984;8.404;2023-03-09T05:34:52;9.90;99.90
13970;DHT22;7057;49.984;8.404;2023-03-09T05:37:21;9.90;99.90
13970;DHT22;7057;49.984;8.404;2023-03-09T05:39:48;9.90;99.90
13970;DHT22;7057;49.984;8.404;2023-03-09T05:42:16;9.90;99.90
13970;DHT22;7057;49.984;8.404;2023-03-09T05:44:43;10.00;99.90
13970;DHT22;7057;49.984;8.404;2023-03-09T05:47:10;10.00;99.90
13970;DHT22;7057;49.984;8.404;2023-03-09T05:49:37;10.00;99.90
13970;DHT22;7057;49.984;8.404;2023-03-09T05:52:04;10.00;99.90
13970;DHT22;7057;49.984;8.404;2023-03-09T05:54:33;10.00;99.90
13970;DHT22;7057;49.984;8.404;2023-03-09T05:57:00;10.00;99.90
13970;DHT22;7057;49.984;8.404;2023-03-09T05:59:27;10.00;99.90
13970;DHT22;7057;49.984;8.404;2023-03-09T06:01:55;10.00;99.90
13970;DHT22;7057;49.984;8.404;2023-03-09T06:04:22;9.90;99.90
13970;DHT22;7057;49.984;8.404;2023-03-09T06:06:49;9.90;99.90
13970;DHT22;7057;49.984;8.404;2023-03-09T06:09:16;9.90;99.90
13970;DHT22;7057;49.984;8.404;2023-03-09T06:11:45;9.90;99.90
13970;DHT22;7057;49.984;8.404;2023-03-09T06:14:12;9.90;99.90
13970;DHT22;7057;49.984;8.404;2023-03-09T06:16:40;9.90;99.90
13970;DHT22;7057;49.984;8.404;2023-03-09T06:19:07;10.00;99.90
13970;DHT22;7057;49.984;8.404;2023-03-09T06:21:34;9.90;99.90
13970;DHT22;7057;49.984;8.404;2023-03-09T06:24:02;10.00;99.90
13970;DHT22;7057;49.984;8.404;2023-03-09T06:26:29;10.00;99.90
13970;DHT22;7057;49.984;8.404;2023-03-09T06:28:58;9.90;99.90
13970;DHT22;7057;49.984;8.404;2023-03-09T06:31:25;9.90;99.90
13970;DHT22;7057;49.984;8.404;2023-03-09T06:33:52;9.90;99.90
13970;DHT22;7057;49.984;8.404;2023-03-09T06:36:19;9.90;99.90
13970;DHT22;7057;49.984;8.404;2023-03-09T06:38:46;9.90;99.90
13970;DHT22;7057;49.984;8.404;2023-03-09T06:41:13;9.90;99.90
13970;DHT22;7057;49.984;8.404;2023-03-09T06:43:41;9.80;99.90
13970;DHT22;7057;49.984;8.404;2023-03-09T06:46:12;9.80;99.90
13970;DHT22;7057;49.984;8.404;2023-03-09T06:48:39;9.90;99.90
13970;DHT22;7057;49.984;8.404;2023-03-09T06:51:07;9.90;99.90
13970;DHT22;7057;49.984;8.404;2023-03-09T06:53:34;9.90;99.90
13970;DHT22;7057;49.984;8.404;2023-03-09T06:56:01;10.00;99.90
13970;DHT22;7057;49.984;8.404;2023-03-09T06:58:28;10.10;99.90
13970;DHT22;7057;49.984;8.404;2023-03-09T07:00:56;10.10;99.90
13970;DHT22;7057;49.984;8.404;2023-03-09T07:03:24;10.00;99.90
13970;DHT22;7057;49.984;8.404;2023-03-09T07:05:51;10.00;99.90
13970;DHT22;7057;49.984;8.404;2023-03-09T07:08:19;10.00;99.90
13970;DHT22;7057;49.984;8.404;2023-03-09T07:10:46;10.10;99.90
13970;DHT22;7057;49.984;8.404;2023-03-09T07:13:14;10.10;99.90
13970;DHT22;7057;49.984;8.404;2023-03-09T07:15:41;10.10;99.90
13970;DHT22;7057;49.984;8.404;2023-03-09T07:18:09;10.10;99.90
13970;DHT22;7057;49.984;8.404;2023-03-09T07:20:39;10.10;99.90
13970;DHT22;7057;49.984;8.404;2023-03-09T07:23:07;10.10;99.90
13970;DHT22;7057;49.984;8.404;2023-03-09T07:25:35;10.20;99.90
13970;DHT22;7057;49.984;8.404;2023-03-09T07:28:04;10.20;99.90
13970;DHT22;7057;49.984;8.404;2023-03-09T07:30:32;10.20;99.90
13970;DHT22;7057;49.984;8.404;2023-03-09T07:33:00;10.10;99.90
13970;DHT22;7057;49.984;8.404;2023-03-09T07:35:27;10.00;99.90
13970;DHT22;7057;49.984;8.404;2023-03-09T07:37:56;10.10;99.90
13970;DHT22;7057;49.984;8.404;2023-03-09T07:40:23;10.20;99.90
13970;DHT22;7057;49.984;8.404;2023-03-09T07:42:51;10.20;99.90
13970;DHT22;7057;49.984;8.404;2023-03-09T07:45:19;10.30;99.90
13970;DHT22;7057;49.984;8.404;2023-03-09T07:47:47;10.30;99.90
13970;DHT22;7057;49.984;8.404;2023-03-09T07:50:14;10.40;99.90
13970;DHT22;7057;49.984;8.404;2023-03-09T07:52:42;10.50;99.90
13970;DHT22;7057;49.984;8.404;2023-03-09T07:55:12;10.60;99.90
13970;DHT22;7057;49.984;8.404;2023-03-09T07:57:39;10.60;99.90
13970;DHT22;7057;49.984;8.404;2023-03-09T08:00:10;10.70;99.90
13970;DHT22;7057;49.984;8.404;2023-03-09T08:02:39;10.70;99.90
13970;DHT22;7057;49.984;8.404;2023-03-09T08:05:07;10.80;99.90
13970;DHT22;7057;49.984;8.404;2023-03-09T08:07:35;10.90;99.90
13970;DHT22;7057;49.984;8.404;2023-03-09T08:10:03;10.90;99.90
13970;DHT22;7057;49.984;8.404;2023-03-09T08:12:32;10.90;99.90
13970;DHT22;7057;49.984;8.404;2023-03-09T08:14:59;11.10;99.90
13970;DHT22;7057;49.984;8.404;2023-03-09T08:17:27;11.20;99.90
13970;DHT22;7057;49.984;8.404;2023-03-09T08:19:55;11.20;99.90
13970;DHT22;7057;49.984;8.404;2023-03-09T08:22:22;11.30;99.90
13970;DHT22;7057;49.984;8.404;2023-03-09T08:24:49;11.30;99.90
13970;DHT22;7057;49.984;8.404;2023-03-09T08:27:16;11.40;99.90
13970;DHT22;7057;49.984;8.404;2023-03-09T08:29:45;11.40;99.90
13970;DHT22;7057;49.984;8.404;2023-03-09T08:32:12;11.50;99.90
13970;DHT22;7057;49.984;8.404;2023-03-09T08:34:39;11.50;99.90
13970;DHT22;7057;49.984;8.404;2023-03-09T08:37:07;11.60;99.90
13970;DHT22;7057;49.984;8.404;2023-03-09T08:39:34;11.60;99.90
13970;DHT22;7057;49.984;8.404;2023-03-09T08:42:01;11.60;99.90
13970;DHT22;7057;49.984;8.404;2023-03-09T08:44:28;11.60;99.90
13970;DHT22;7057;49.984;8.404;2023-03-09T08:46:57;11.60;99.90
13970;DHT22;7057;49.984;8.404;2023-03-09T08:49:24;11.70;99.90
13970;DHT22;7057;49.984;8.404;2023-03-09T08:51:51;11.60;99.90
13970;DHT22;7057;49.984;8.404;2023-03-09T08:54:18;11.60;99.90
13970;DHT22;7057;49.984;8.404;2023-03-09T08:56:45;11.70;99.90
13970;DHT22;7057;49.984;8.404;2023-03-09T08:59:12;11.90;99.90
13970;DHT22;7057;49.984;8.404;2023-03-09T09:01:39;12.00;99.90
13970;DHT22;7057;49.984;8.404;2023-03-09T09:04:08;12.10;99.90
13970;DHT22;7057;49.984;8.404;2023-03-09T09:06:35;12.10;99.90
13970;DHT22;7057;49.984;8.404;2023-03-09T09:09:02;12.10;99.90
13970;DHT22;7057;49.984;8.404;2023-03-09T09:11:30;12.20;99.90
13970;DHT22;7057;49.984;8.404;2023-03-09T09:13:58;12.30;99.90
13970;DHT22;7057;49.984;8.404;2023-03-09T09:16:25;12.50;99.90
13970;DHT22;7057;49.984;8.404;2023-03-09T09:18:53;12.60;99.90
13970;DHT22;7057;49.984;8.404;2023-03-09T09:21:22;12.60;99.90
13970;DHT22;7057;49.984;8.404;2023-03-09T09:23:50;12.60;99.90
13970;DHT22;7057;49.984;8.404;2023-03-09T09:26:17;12.70;99.90
13970;DHT22;7057;49.984;8.404;2023-03-09T09:28:45;12.70;99.90
13970;DHT22;7057;49.984;8.404;2023-03-09T09:31:16;12.70;99.90
13970;DHT22;7057;49.984;8.404;2023-03-09T09:33:43;12.70;99.90
13970;DHT22;7057;49.984;8.404;2023-03-09T09:36:12;12.70;99.90
13970;DHT22;7057;49.984;8.404;2023-03-09T09:38:41;12.90;99.90
13970;DHT22;7057;49.984;8.404;2023-03-09T09:41:14;12.90;99.90
13970;DHT22;7057;49.984;8.404;2023-03-09T09:43:44;12.90;99.90
13970;DHT22;7057;49.984;8.404;2023-03-09T09:46:14;12.90;99.90
13970;DHT22;7057;49.984;8.404;2023-03-09T09:48:43;12.90;99.90
13970;DHT22;7057;49.984;8.404;2023-03-09T09:51:24;12.90;99.90
13970;DHT22;7057;49.984;8.404;2023-03-09T09:54:03;13.00;99.90
13970;DHT22;7057;49.984;8.404;2023-03-09T09:56:46;13.20;99.90
13970;DHT22;7057;49.984;8.404;2023-03-09T09:59:19;13.20;99.90
13970;DHT22;7057;49.984;8.404;2023-03-09T10:01:51;13.20;99.90
13970;DHT22;7057;49.984;8.404;2023-03-09T10:04:24;13.20;99.90
13970;DHT22;7057;49.984;8.404;2023-03-09T10:06:57;13.30;99.90
13970;DHT22;7057;49.984;8.404;2023-03-09T10:09:28;13.40;99.90
13970;DHT22;7057;49.984;8.404;2023-03-09T10:12:01;13.60;99.90
13970;DHT22;7057;49.984;8.404;2023-03-09T10:14:37;13.70;99.90
13970;DHT22;7057;49.984;8.404;2023-03-09T10:17:11;13.70;99.90
13970;DHT22;7057;49.984;8.404;2023-03-09T10:19:40;13.70;99.90
13970;DHT22;7057;49.984;8.404;2023-03-09T10:22:15;13.80;99.90
13970;DHT22;7057;49.984;8.404;2023-03-09T10:24:46;13.90;99.90
13970;DHT22;7057;49.984;8.404;2023-03-09T10:27:19;13.80;99.90
13970;DHT22;7057;49.984;8.404;2023-03-09T10:29:51;13.80;99.90
13970;DHT22;7057;49.984;8.404;2023-03-09T10:32:21;13.80;99.90
13970;DHT22;7057;49.984;8.404;2023-03-09T10:34:55;13.80;99.90
13970;DHT22;7057;49.984;8.404;2023-03-09T10:37:27;14.00;99.90
13970;DHT22;7057;49.984;8.404;2023-03-09T10:40:00;13.90;99.90
13970;DHT22;7057;49.984;8.404;2023-03-09T10:42:28;13.80;99.90
13970;DHT22;7057;49.984;8.404;2023-03-09T10:45:03;13.70;99.90
13970;DHT22;7057;49.984;8.404;2023-03-09T10:47:50;13.70;99.90
13970;DHT22;7057;49.984;8.404;2023-03-09T10:50:18;13.90;99.90
13970;DHT22;7057;49.984;8.404;2023-03-09T10:52:47;14.00;99.90
13970;DHT22;7057;49.984;8.404;2023-03-09T10:55:32;14.00;99.90
13970;DHT22;7057;49.984;8.404;2023-03-09T10:58:01;14.00;99.90
13970;DHT22;7057;49.984;8.404;2023-03-09T11:00:29;14.00;99.90
13970;DHT22;7057;49.984;8.404;2023-03-09T11:02:58;13.80;99.90
13970;DHT22;7057;49.984;8.404;2023-03-09T11:05:28;13.70;99.90
13970;DHT22;7057;49.984;8.404;2023-03-09T11:07:57;13.70;99.90
13970;DHT22;7057;49.984;8.404;2023-03-09T11:10:27;13.60;99.90
13970;DHT22;7057;49.984;8.404;2023-03-09T11:12:55;13.50;99.90
13970;DHT22;7057;49.984;8.404;2023-03-09T11:15:26;13.60;99.90
13970;DHT22;7057;49.984;8.404;2023-03-09T11:17:55;13.50;99.90
13970;DHT22;7057;49.984;8.404;2023-03-09T11:20:27;13.60;99.90
13970;DHT22;7057;49.984;8.404;2023-03-09T11:22:59;13.60;99.90
13970;DHT22;7057;49.984;8.404;2023-03-09T11:25:42;13.70;99.90
13970;DHT22;7057;49.984;8.404;2023-03-09T11:28:21;13.80;99.90
13970;DHT22;7057;49.984;8.404;2023-03-09T11:30:51;13.90;99.90
13970;DHT22;7057;49.984;8.404;2023-03-09T11:33:20;14.10;99.90
13970;DHT22;7057;49.984;8.404;2023-03-09T11:35:51;14.30;99.90
13970;DHT22;7057;49.984;8.404;2023-03-09T11:38:19;14.30;99.90
13970;DHT22;7057;49.984;8.404;2023-03-09T11:41:00;14.50;99.90
13970;DHT22;7057;49.984;8.404;2023-03-09T11:43:34;14.60;99.90
13970;DHT22;7057;49.984;8.404;2023-03-09T11:46:05;14.80;99.90
13970;DHT22;7057;49.984;8.404;2023-03-09T11:48:36;14.80;99.90
13970;DHT22;7057;49.984;8.404;2023-03-09T11:51:06;14.90;99.90
13970;DHT22;7057;49.984;8.404;2023-03-09T11:53:38;14.90;99.90
13970;DHT22;7057;49.984;8.404;2023-03-09T11:56:16;14.70;99.90
13970;DHT22;7057;49.984;8.404;2023-03-09T11:58:47;14.70;99.90
13970;DHT22;7057;49.984;8.404;2023-03-09T12:01:21;14.70;99.90
13970;DHT22;7057;49.984;8.404;2023-03-09T12:03:58;14.50;99.90
13970;DHT22;7057;49.984;8.404;2023-03-09T12:06:45;14.50;99.90
13970;DHT22;7057;49.984;8.404;2023-03-09T12:09:23;14.30;99.90
13970;DHT22;7057;49.984;8.404;2023-03-09T12:11:56;14.30;99.90
13970;DHT22;7057;49.984;8.404;2023-03-09T12:14:27;14.20;99.90
13970;DHT22;7057;49.984;8.404;2023-03-09T12:17:01;14.10;99.90
13970;DHT22;7057;49.984;8.404;2023-03-09T12:19:32;14.10;99.90
13970;DHT22;7057;49.984;8.404;2023-03-09T12:22:04;14.00;99.90
13970;DHT22;7057;49.984;8.404;2023-03-09T12:24:37;13.90;99.90
13970;DHT22;7057;49.984;8.404;2023-03-09T12:27:15;13.90;99.90
13970;DHT22;7057;49.984;8.404;2023-03-09T12:29:45;14.00;99.90
13970;DHT22;7057;49.984;8.404;2023-03-09T12:35:02;14.60;99.90
13970;DHT22;7057;49.984;8.404;2023-03-09T12:37:54;14.90;99.90
13970;DHT22;7057;49.984;8.404;2023-03-09T12:40:30;15.20;99.90
13970;DHT22;7057;49.984;8.404;2023-03-09T12:43:32;15.20;99.90
13970;DHT22;7057;49.984;8.404;2023-03-09T12:49:12;15.30;99.90
13970;DHT22;7057;49.984;8.404;2023-03-09T12:51:42;15.10;99.90
13970;DHT22;7057;49.984;8.404;2023-03-09T12:54:19;15.00;99.90
13970;DHT22;7057;49.984;8.404;2023-03-09T12:56:49;14.80;99.90
13970;DHT22;7057;49.984;8.404;2023-03-09T12:59:21;14.80;99.90
13970;DHT22;7057;49.984;8.404;2023-03-09T13:01:54;14.80;99.90
13970;DHT22;7057;49.984;8.404;2023-03-09T13:04:24;14.80;99.90
13970;DHT22;7057;49.984;8.404;2023-03-09T13:06:54;14.60;99.90
13970;DHT22;7057;49.984;8.404;2023-03-09T13:09:26;14.70;99.90
13970;DHT22;7057;49.984;8.404;2023-03-09T13:12:03;15.00;99.90
13970;DHT22;7057;49.984;8.404;2023-03-09T13:15:17;15.20;99.90
13970;DHT22;7057;49.984;8.404;2023-03-09T13:18:03;15.40;99.90
13970;DHT22;7057;49.984;8.404;2023-03-09T13:20:35;15.20;99.90
13970;DHT22;7057;49.984;8.404;2023-03-09T13:23:05;15.20;99.90
13970;DHT22;7057;49.984;8.404;2023-03-09T13:25:42;15.20;99.90
13970;DHT22;7057;49.984;8.404;2023-03-09T13:28:27;15.20;99.90
13970;DHT22;7057;49.984;8.404;2023-03-09T13:30:59;15.40;99.90
13970;DHT22;7057;49.984;8.404;2023-03-09T13:33:31;15.40;99.90
13970;DHT22;7057;49.984;8.404;2023-03-09T13:36:06;15.50;99.90
13970;DHT22;7057;49.984;8.404;2023-03-09T13:38:37;15.60;99.90
13970;DHT22;7057;49.984;8.404;2023-03-09T13:41:06;15.70;99.90
13970;DHT22;7057;49.984;8.404;2023-03-09T13:43:46;15.80;99.90
13970;DHT22;7057;49.984;8.404;2023-03-09T13:46:22;15.70;99.90
13970;DHT22;7057;49.984;8.404;2023-03-09T13:48:51;15.70;99.90
13970;DHT22;7057;49.984;8.404;2023-03-09T13:51:26;15.50;99.90
13970;DHT22;7057;49.984;8.404;2023-03-09T13:53:54;15.30;99.90
13970;DHT22;7057;49.984;8.404;2023-03-09T13:56:21;15.10;99.90
13970;DHT22;7057;49.984;8.404;2023-03-09T13:58:48;15.00;99.90
13970;DHT22;7057;49.984;8.404;2023-03-09T14:01:22;15.00;99.90
13970;DHT22;7057;49.984;8.404;2023-03-09T14:03:52;15.00;99.90
13970;DHT22;7057;49.984;8.404;2023-03-09T14:06:37;14.80;99.90
13970;DHT22;7057;49.984;8.404;2023-03-09T14:09:23;14.60;99.90
13970;DHT22;7057;49.984;8.404;2023-03-09T14:11:53;14.50;99.90
13970;DHT22;7057;49.984;8.404;2023-03-09T14:14:21;14.70;99.90
13970;DHT22;7057;49.984;8.404;2023-03-09T14:16:52;15.10;99.90
13970;DHT22;7057;49.984;8.404;2023-03-09T14:19:23;15.30;99.90
13970;DHT22;7057;49.984;8.404;2023-03-09T14:21:52;15.40;99.90
13970;DHT22;7057;49.984;8.404;2023-03-09T14:24:23;15.80;99.90
13970;DHT22;7057;49.984;8.404;2023-03-09T14:26:51;16.00;99.90
13970;DHT22;7057;49.984;8.404;2023-03-09T14:29:22;16.00;99.90
13970;DHT22;7057;49.984;8.404;2023-03-09T14:32:20;16.10;99.90
13970;DHT22;7057;49.984;8.404;2023-03-09T14:34:49;16.10;99.90
13970;DHT22;7057;49.984;8.404;2023-03-09T14:37:20;16.10;99.90
13970;DHT22;7057;49.984;8.404;2023-03-09T14:39:48;16.10;99.90
13970;DHT22;7057;49.984;8.404;2023-03-09T14:42:27;15.90;99.90
13970;DHT22;7057;49.984;8.404;2023-03-09T14:47:52;15.30;99.90
13970;DHT22;7057;49.984;8.404;2023-03-09T14:50:24;15.10;99.90
13970;DHT22;7057;49.984;8.404;2023-03-09T14:52:51;14.90;99.90
13970;DHT22;7057;49.984;8.404;2023-03-09T14:55:20;14.80;99.90
13970;DHT22;7057;49.984;8.404;2023-03-09T14:57:49;14.70;99.90
13970;DHT22;7057;49.984;8.404;2023-03-09T15:00:18;14.70;99.90
13970;DHT22;7057;49.984;8.404;2023-03-09T15:02:46;15.00;99.90
13970;DHT22;7057;49.984;8.404;2023-03-09T15:05:19;15.20;99.90
13970;DHT22;7057;49.984;8.404;2023-03-09T15:07:46;15.30;99.90
13970;DHT22;7057;49.984;8.404;2023-03-09T15:10:17;15.40;99.90
13970;DHT22;7057;49.984;8.404;2023-03-09T15:12:45;15.30;99.90
13970;DHT22;7057;49.984;8.404;2023-03-09T15:15:17;15.40;99.90
13970;DHT22;7057;49.984;8.404;2023-03-09T15:17:45;15.30;99.90
13970;DHT22;7057;49.984;8.404;2023-03-09T15:20:16;15.20;99.90
13970;DHT22;7057;49.984;8.404;2023-03-09T15:22:44;15.10;99.90
13970;DHT22;7057;49.984;8.404;2023-03-09T15:25:13;15.00;99.90
13970;DHT22;7057;49.984;8.404;2023-03-09T15:27:41;14.90;99.90
13970;DHT22;7057;49.984;8.404;2023-03-09T15:30:11;14.90;99.90
13970;DHT22;7057;49.984;8.404;2023-03-09T15:32:39;14.90;99.90
13970;DHT22;7057;49.984;8.404;2023-03-09T15:35:07;14.90;99.90
13970;DHT22;7057;49.984;8.404;2023-03-09T15:37:38;14.90;99.90
13970;DHT22;7057;49.984;8.404;2023-03-09T15:40:07;14.90;99.90
13970;DHT22;7057;49.984;8.404;2023-03-09T15:42:37;14.90;99.90
13970;DHT22;7057;49.984;8.404;2023-03-09T15:45:05;14.90;99.90
13970;DHT22;7057;49.984;8.404;2023-03-09T15:47:33;14.90;99.90
13970;DHT22;7057;49.984;8.404;2023-03-09T15:50:00;14.90;99.90
13970;DHT22;7057;49.984;8.404;2023-03-09T15:52:28;14.90;99.90
13970;DHT22;7057;49.984;8.404;2023-03-09T15:54:56;14.90;99.90
13970;DHT22;7057;49.984;8.404;2023-03-09T15:57:24;15.00;99.90
13970;DHT22;7057;49.984;8.404;2023-03-09T15:59:51;15.00;99.90
13970;DHT22;7057;49.984;8.404;2023-03-09T16:02:19;15.00;99.90
13970;DHT22;7057;49.984;8.404;2023-03-09T16:04:47;15.00;99.90
13970;DHT22;7057;49.984;8.404;2023-03-09T16:07:15;15.00;99.90
13970;DHT22;7057;49.984;8.404;2023-03-09T16:09:42;15.00;99.90
13970;DHT22;7057;49.984;8.404;2023-03-09T16:12:11;15.00;99.90
13970;DHT22;7057;49.984;8.404;2023-03-09T16:14:38;14.90;99.90
13970;DHT22;7057;49.984;8.404;2023-03-09T16:17:06;14.90;99.90